Quincy, CA (95971)

10:27 PM PDT on April 25, 2015 (GMT -0700)
MesoWest | | Change Station
CLOSE
Current Station
Personal Weather Station
Location: Quincy, CA
Elevation: 3859 ft
Nearby Weather Stations

Elev 3859 ft 39.91 °N, 120.81 °W | Updated 50 minutes ago

Partly Cloudy
Partly Cloudy
40 °F
Feels Like 40 °F
N
1
Wind Variable Wind from SE
Gusts 2.0 mph

Today
High -- | Low -- °F
--% Chance of Precip.
Yesterday
High -- | Low -- °F
Precip. -- in
6:11 AM 7:51 PM
First Quarter, 52% visible
Pressure 30.04 in
Visibility 10.0 miles
Clouds Mostly Cloudy 1900 ft
Windchill 40 °F
Dew Point 35 °F
Humidity 84%
Rainfall in
Snow Depth Not available.
UV 0 out of 12
Pollen 4.00 out of 12
Air Quality Not available.
Flu Activity Sporadic
SPECI KBLU 260518Z AUTO 02003KT 10SM BKN019 04/01 A3004 RMK AO2 T00440006 $

More Conditions Fewer Conditions

Pressure 30.04 in
Visibility 10.0 miles
Clouds Mostly Cloudy 1900 ft
Windchill 40 °F
Dew Point 35 °F
Humidity 84%
Rainfall in
Snow Depth Not available.
UV 0 out of 12
Pollen 4.00 out of 12
Air Quality Not available.
Flu Activity Sporadic
SPECI KBLU 260518Z AUTO 02003KT 10SM BKN019 04/01 A3004 RMK AO2 T00440006 $

More Conditions Fewer Conditions

The full scope of the disaster following a powerful 7.8-magnitude earthquake in Nepal may not come into view for days, but global charities are already sending emergency aid. Click to see how you can help.

10-Day Weather Forecast

Almanac

Astronomy

Apr. 25, 2015 Rise Set
Actual Time
Civil Twilight
Nautical Twilight
Astronomical Twilight
Moon
Length of Visible Light
Length of Day
Tomorrow will be .
, % of the Moon is Illuminated

Today's Extremes

State Highs State Lows

Community

WunderPhotos

Upload Photos

1,816,945 photos uploaded!

WunderBlogs® & News

Nearby

Air Quality

  Air Quality AQ Index Pollutant
Not available.

Snow Depth

Station Depth Elevation

Earthquake Activity

City Distance Mag. Time & Date
Minimum magnitude displayed is 2.5.

Coastal Water Temperatures

Place Temperature

Stations

Nearby Weather Stations

Station Location Temp. Windchill Dew Point Humidity Wind Precip. Elev Updated Type